createdAt,value
2022-12-01T00:02:54.985Z,21.38
2022-12-01T00:06:07.866Z,18.20
2022-12-01T00:09:34.517Z,21.02
2022-12-01T00:12:43.683Z,22.48
2022-12-01T00:15:49.420Z,21.88
2022-12-01T00:18:55.264Z,20.40
2022-12-01T00:22:03.929Z,20.25
2022-12-01T00:25:12.878Z,19.25
2022-12-01T00:28:18.998Z,21.02
2022-12-01T00:31:24.521Z,24.80
2022-12-01T00:34:30.656Z,22.27
2022-12-01T00:37:39.297Z,23.58
2022-12-01T00:40:46.045Z,22.75
2022-12-01T00:43:51.233Z,21.88
2022-12-01T00:46:58.934Z,22.88
2022-12-01T00:50:06.969Z,22.35
2022-12-01T00:53:15.428Z,22.80
2022-12-01T00:56:21.326Z,20.10
2022-12-01T00:59:27.087Z,21.88
2022-12-01T01:02:32.424Z,23.70
2022-12-01T01:05:39.113Z,20.98
2022-12-01T01:08:47.596Z,21.17
2022-12-01T01:11:53.705Z,21.02
2022-12-01T01:15:01.347Z,20.98
2022-12-01T01:18:07.606Z,23.50
2022-12-01T01:21:15.730Z,21.48
2022-12-01T01:24:24.469Z,20.73
2022-12-01T01:27:29.686Z,21.10
2022-12-01T01:30:35.984Z,22.67
2022-12-01T01:33:41.260Z,21.95
2022-12-01T01:36:47.002Z,20.55
2022-12-01T01:39:54.931Z,20.15
2022-12-01T01:43:00.916Z,20.70
2022-12-01T01:46:06.176Z,21.13
2022-12-01T01:49:13.993Z,23.65
2022-12-01T01:52:19.518Z,22.52
2022-12-01T01:55:27.935Z,20.98
2022-12-01T01:58:33.586Z,21.98
2022-12-01T02:01:39.569Z,23.02
2022-12-01T02:04:47.261Z,22.30
2022-12-01T02:07:54.244Z,21.88
2022-12-01T02:11:17.073Z,21.13
2022-12-01T02:17:38.902Z,19.13
2022-12-01T02:21:11.726Z,20.48
2022-12-01T02:24:31.790Z,21.23
2022-12-01T02:27:51.785Z,21.83
2022-12-01T02:31:02.085Z,22.17
2022-12-01T02:34:13.097Z,21.88
2022-12-01T02:37:21.560Z,22.52
2022-12-01T02:40:30.081Z,22.25
2022-12-01T02:43:36.439Z,22.88
2022-12-01T02:46:47.854Z,22.33
2022-12-01T02:49:55.007Z,21.52
2022-12-01T02:53:01.490Z,22.13
2022-12-01T02:56:09.921Z,23.30
2022-12-01T02:59:17.645Z,22.38
2022-12-01T03:02:30.892Z,21.63
2022-12-01T03:05:41.632Z,21.88
2022-12-01T03:08:51.785Z,22.50
2022-12-01T03:12:01.217Z,23.20
2022-12-01T03:15:08.941Z,21.20
2022-12-01T03:18:22.559Z,20.75
2022-12-01T03:21:31.239Z,21.95
2022-12-01T03:24:37.185Z,22.23
2022-12-01T03:28:06.711Z,20.60
2022-12-01T03:31:12.112Z,22.10
2022-12-01T03:34:25.645Z,18.02
2022-12-01T03:37:34.155Z,20.98
2022-12-01T03:40:41.090Z,22.33
2022-12-01T03:43:49.673Z,19.33
2022-12-01T03:46:56.267Z,20.83
2022-12-01T03:50:07.659Z,22.17
2022-12-01T03:53:14.610Z,21.40
2022-12-01T03:56:23.541Z,21.63
2022-12-01T03:59:32.001Z,21.30
2022-12-01T04:02:38.502Z,20.83
2022-12-01T04:05:46.770Z,20.92
2022-12-01T04:08:53.364Z,20.30
2022-12-01T04:12:12.198Z,21.25
2022-12-01T04:15:18.607Z,19.88
2022-12-01T04:18:26.038Z,20.95
2022-12-01T04:21:34.313Z,21.00
2022-12-01T04:24:39.626Z,22.00
2022-12-01T04:27:47.998Z,21.52
2022-12-01T04:30:53.248Z,20.63
2022-12-01T04:33:59.418Z,21.67
2022-12-01T04:37:07.989Z,21.08
2022-12-01T04:40:14.650Z,21.20
2022-12-01T04:43:19.758Z,19.13
2022-12-01T04:46:25.932Z,18.65
2022-12-01T04:49:30.988Z,20.90
2022-12-01T04:52:40.424Z,20.67
2022-12-01T04:55:45.785Z,21.05
2022-12-01T04:58:51.526Z,21.50
2022-12-01T05:01:57.377Z,22.60
2022-12-01T05:05:03.116Z,22.00
2022-12-01T05:08:10.815Z,20.90
2022-12-01T05:11:17.337Z,20.23
2022-12-01T05:14:22.684Z,20.45
2022-12-01T05:17:32.705Z,20.00
2022-12-01T05:20:54.031Z,20.23
2022-12-01T05:24:02.430Z,19.70
2022-12-01T05:27:07.467Z,20.92
2022-12-01T05:30:15.733Z,20.05
2022-12-01T05:33:20.909Z,19.25
2022-12-01T05:36:26.933Z,20.30
2022-12-01T05:39:35.029Z,20.67
2022-12-01T05:42:41.249Z,19.77
2022-12-01T05:45:49.958Z,20.40
2022-12-01T05:48:55.661Z,20.85
2022-12-01T05:52:00.775Z,20.00
2022-12-01T05:55:09.679Z,18.27
2022-12-01T05:58:14.610Z,20.85
2022-12-01T06:01:22.295Z,21.40
2022-12-01T06:04:29.625Z,21.73
2022-12-01T06:07:35.884Z,20.02
2022-12-01T06:10:43.456Z,20.23
2022-12-01T06:13:49.136Z,21.27
2022-12-01T06:16:54.728Z,19.92
2022-12-01T06:20:02.505Z,18.23
2022-12-01T06:23:07.599Z,22.00
2022-12-01T06:26:15.785Z,20.83
2022-12-01T06:29:20.649Z,22.00
2022-12-01T06:32:26.035Z,20.83
2022-12-01T06:35:30.836Z,19.90
2022-12-01T06:38:37.195Z,20.42
2022-12-01T06:41:44.680Z,21.70
2022-12-01T06:44:50.056Z,22.60
2022-12-01T06:47:56.248Z,22.63
2022-12-01T06:51:01.998Z,20.95
2022-12-01T06:54:08.529Z,21.20
2022-12-01T06:57:17.165Z,20.60
2022-12-01T07:00:22.852Z,19.85
2022-12-01T07:03:28.510Z,21.33
2022-12-01T07:06:33.710Z,20.58
2022-12-01T07:09:39.177Z,20.83
2022-12-01T07:12:46.967Z,20.33
2022-12-01T07:15:52.782Z,21.20
2022-12-01T07:19:00.093Z,21.58
2022-12-01T07:22:06.119Z,22.35
2022-12-01T07:25:13.025Z,20.88
2022-12-01T07:28:22.813Z,20.17
2022-12-01T07:31:28.439Z,21.13
2022-12-01T07:34:34.462Z,20.60
2022-12-01T07:37:41.889Z,21.13
2022-12-01T07:40:47.669Z,21.10
2022-12-01T07:43:55.608Z,20.30
2022-12-01T07:47:01.328Z,20.63
2022-12-01T07:50:10.353Z,21.70
2022-12-01T07:53:15.716Z,22.67
2022-12-01T07:56:21.103Z,22.85
2022-12-01T07:59:29.529Z,27.30
2022-12-01T08:02:34.972Z,28.65
2022-12-01T08:05:41.550Z,29.48
2022-12-01T08:08:46.828Z,28.77
2022-12-01T08:11:52.205Z,24.80
2022-12-01T08:14:59.779Z,25.45
2022-12-01T08:18:06.391Z,23.30
2022-12-01T08:21:13.039Z,24.10
2022-12-01T08:24:18.451Z,22.92
2022-12-01T08:27:23.491Z,25.23
2022-12-01T08:30:31.624Z,21.88
2022-12-01T08:33:36.857Z,21.23
2022-12-01T08:36:43.077Z,21.77
2022-12-01T08:39:48.692Z,21.05
2022-12-01T08:42:54.993Z,21.02
2022-12-01T08:46:07.288Z,21.45
2022-12-01T08:49:12.737Z,21.58
2022-12-01T08:52:17.717Z,22.92
2022-12-01T08:55:24.791Z,26.00
2022-12-01T08:58:37.505Z,20.35
2022-12-01T09:01:57.753Z,23.00
2022-12-01T09:05:05.253Z,29.48
2022-12-01T09:08:22.888Z,26.45
2022-12-01T09:11:28.093Z,21.25
2022-12-01T09:14:34.034Z,21.83
2022-12-01T09:17:41.714Z,23.70
2022-12-01T09:20:56.015Z,23.25
2022-12-01T09:24:01.557Z,20.95
2022-12-01T09:27:07.508Z,21.85
2022-12-01T09:30:12.834Z,21.90
2022-12-01T09:33:20.803Z,21.85
2022-12-01T09:36:26.340Z,20.40
2022-12-01T09:39:32.011Z,19.40
2022-12-01T09:42:37.822Z,18.38
2022-12-01T09:45:46.237Z,18.73
2022-12-01T09:48:55.553Z,18.13
2022-12-01T09:52:02.673Z,25.65
2022-12-01T09:55:10.328Z,19.92
2022-12-01T09:58:18.649Z,17.58
2022-12-01T10:01:27.212Z,17.17
2022-12-01T10:04:39.320Z,26.08
2022-12-01T10:07:47.777Z,20.15
2022-12-01T10:10:58.262Z,19.30
2022-12-01T10:14:03.888Z,18.70
2022-12-01T10:17:15.496Z,17.60
2022-12-01T10:20:27.786Z,16.83
2022-12-01T10:23:39.951Z,18.05
2022-12-01T10:26:48.244Z,18.33
2022-12-01T10:30:00.145Z,18.10
2022-12-01T10:33:11.314Z,18.65
2022-12-01T10:36:19.686Z,19.40
2022-12-01T10:39:28.176Z,19.63
2022-12-01T10:42:35.733Z,19.35
2022-12-01T10:45:44.208Z,20.10
2022-12-01T10:48:55.673Z,21.40
2022-12-01T10:52:03.862Z,20.35
2022-12-01T10:55:27.128Z,19.80
2022-12-01T10:58:33.399Z,17.67
2022-12-01T11:01:38.840Z,20.98
2022-12-01T11:04:49.863Z,18.52
2022-12-01T11:07:58.769Z,18.95
2022-12-01T11:11:04.250Z,18.60
2022-12-01T11:14:18.886Z,17.70
2022-12-01T11:17:32.453Z,16.95
2022-12-01T11:20:40.343Z,16.92
2022-12-01T11:23:51.320Z,19.63
2022-12-01T11:26:56.625Z,17.88
2022-12-01T11:30:05.299Z,17.40
2022-12-01T11:33:17.521Z,18.05
2022-12-01T11:36:24.074Z,17.65
2022-12-01T11:39:34.910Z,17.42
2022-12-01T11:42:41.505Z,17.92
2022-12-01T11:45:49.235Z,18.95
2022-12-01T11:49:00.308Z,19.10
2022-12-01T11:52:19.444Z,19.42
2022-12-01T11:55:28.578Z,19.27
2022-12-01T11:58:35.534Z,21.05
2022-12-01T12:01:45.167Z,18.92
2022-12-01T12:05:08.573Z,18.27
2022-12-01T12:08:18.999Z,18.10
2022-12-01T12:11:31.780Z,17.45
2022-12-01T12:14:46.535Z,18.98
2022-12-01T12:18:01.845Z,19.35
2022-12-01T12:21:12.017Z,19.33
2022-12-01T12:24:31.057Z,20.52
2022-12-01T12:27:44.960Z,23.35
2022-12-01T12:30:57.772Z,22.13
2022-12-01T12:34:09.935Z,24.60
2022-12-01T12:37:24.770Z,21.20
2022-12-01T12:40:40.070Z,19.27
2022-12-01T12:43:54.777Z,20.13
2022-12-01T12:47:06.168Z,19.80
2022-12-01T12:50:26.611Z,18.25
2022-12-01T12:53:34.667Z,19.25
2022-12-01T12:56:40.210Z,21.55
2022-12-01T12:59:54.428Z,21.40
2022-12-01T13:03:04.936Z,21.30
2022-12-01T13:06:12.258Z,21.77
2022-12-01T13:09:19.428Z,22.02
2022-12-01T13:12:28.186Z,20.55
2022-12-01T13:15:37.175Z,20.55
2022-12-01T13:18:43.838Z,16.08
2022-12-01T13:21:51.438Z,16.48
2022-12-01T13:24:56.641Z,18.42
2022-12-01T13:28:03.373Z,18.38
2022-12-01T13:31:11.942Z,19.27
2022-12-01T13:34:25.036Z,18.50
2022-12-01T13:37:31.078Z,18.58
2022-12-01T13:40:37.105Z,20.95
2022-12-01T13:43:51.663Z,21.05
2022-12-01T13:47:04.110Z,23.10
2022-12-01T13:50:24.038Z,21.35
2022-12-01T13:53:34.157Z,19.92
2022-12-01T13:56:41.233Z,23.05
2022-12-01T14:00:07.572Z,20.48
2022-12-01T14:03:27.584Z,22.58
2022-12-01T14:06:46.568Z,19.50
2022-12-01T14:09:52.297Z,23.25
2022-12-01T14:12:59.869Z,20.05
2022-12-01T14:16:08.483Z,22.08
2022-12-01T14:19:31.908Z,20.50
2022-12-01T14:22:42.613Z,19.70
2022-12-01T14:26:06.280Z,18.15
2022-12-01T14:29:29.361Z,18.98
2022-12-01T14:32:37.540Z,18.45
2022-12-01T14:35:43.971Z,19.20
2022-12-01T14:38:52.680Z,19.35
2022-12-01T14:41:59.290Z,17.65
2022-12-01T14:45:08.570Z,18.63
2022-12-01T14:48:15.457Z,19.63
2022-12-01T14:51:26.489Z,19.45
2022-12-01T14:54:36.337Z,20.30
2022-12-01T14:57:45.331Z,18.88
2022-12-01T15:00:58.271Z,19.85
2022-12-01T15:04:05.643Z,18.35
2022-12-01T15:07:10.486Z,19.33
2022-12-01T15:10:22.589Z,19.90
2022-12-01T15:13:30.981Z,19.52
2022-12-01T15:16:43.598Z,21.02
2022-12-01T15:19:49.203Z,20.13
2022-12-01T15:22:57.281Z,18.10
2022-12-01T15:26:05.292Z,20.73
2022-12-01T15:29:17.953Z,19.17
2022-12-01T15:32:24.571Z,20.92
2022-12-01T15:35:30.876Z,22.08
2022-12-01T15:38:37.308Z,20.40
2022-12-01T15:41:46.100Z,22.35
2022-12-01T15:45:00.559Z,21.38
2022-12-01T15:48:17.995Z,23.40
2022-12-01T15:51:27.805Z,21.92
2022-12-01T15:54:35.020Z,22.15
2022-12-01T15:57:42.642Z,22.83
2022-12-01T16:00:55.652Z,22.80
2022-12-01T16:04:03.716Z,22.45
2022-12-01T16:07:10.906Z,21.25
2022-12-01T16:10:27.811Z,20.63
2022-12-01T16:13:44.748Z,20.90
2022-12-01T16:16:52.182Z,20.70
2022-12-01T16:20:12.413Z,23.70
2022-12-01T16:23:18.509Z,22.83
2022-12-01T16:26:23.943Z,20.75
2022-12-01T16:29:34.296Z,19.90
2022-12-01T16:32:41.255Z,21.52
2022-12-01T16:35:46.705Z,19.13
2022-12-01T16:38:53.436Z,20.30
2022-12-01T16:42:02.203Z,21.30
2022-12-01T16:45:13.883Z,17.95
2022-12-01T16:48:20.353Z,18.75
2022-12-01T16:51:35.437Z,20.48
2022-12-01T16:54:47.923Z,19.85
2022-12-01T16:57:53.875Z,20.10
2022-12-01T17:01:07.549Z,19.85
2022-12-01T17:04:15.234Z,20.63
2022-12-01T17:07:20.441Z,19.33
2022-12-01T17:10:26.425Z,18.35
2022-12-01T17:13:31.885Z,20.30
2022-12-01T17:16:41.057Z,20.13
2022-12-01T17:19:46.320Z,18.63
2022-12-01T17:22:52.137Z,18.38
2022-12-01T17:25:58.814Z,19.65
2022-12-01T17:29:06.403Z,20.45
2022-12-01T17:32:16.973Z,20.83
2022-12-01T17:35:23.037Z,21.45
2022-12-01T17:38:28.482Z,20.00
2022-12-01T17:41:38.568Z,18.58
2022-12-01T17:44:43.817Z,20.13
2022-12-01T17:47:53.656Z,21.30
2022-12-01T17:51:01.650Z,19.52
2022-12-01T17:54:07.644Z,19.73
2022-12-01T17:57:13.087Z,19.67
2022-12-01T18:00:19.117Z,19.15
2022-12-01T18:03:28.017Z,19.40
2022-12-01T18:06:35.667Z,20.35
2022-12-01T18:09:41.295Z,22.40
2022-12-01T18:12:47.191Z,21.55
2022-12-01T18:15:56.537Z,29.42
2022-12-01T18:19:05.516Z,23.80
2022-12-01T18:22:10.841Z,21.45
2022-12-01T18:25:16.743Z,21.35
2022-12-01T18:28:26.754Z,20.42
2022-12-01T18:31:33.207Z,21.70
2022-12-01T18:34:43.178Z,19.15
2022-12-01T18:37:48.626Z,21.02
2022-12-01T18:40:55.214Z,20.50
2022-12-01T18:44:00.728Z,19.75
2022-12-01T18:47:06.815Z,18.60
2022-12-01T18:50:15.801Z,19.25
2022-12-01T18:53:23.018Z,20.17
2022-12-01T18:56:29.234Z,19.77
2022-12-01T18:59:34.333Z,20.23
2022-12-01T19:02:42.535Z,24.63
2022-12-01T19:05:53.358Z,56.22
2022-12-01T19:08:59.440Z,59.65
2022-12-01T19:12:04.299Z,42.25
2022-12-01T19:15:11.345Z,39.85
2022-12-01T19:18:17.616Z,35.83
2022-12-01T19:21:25.673Z,29.17
2022-12-01T19:24:33.337Z,22.48
2022-12-01T19:27:39.286Z,20.38
2022-12-01T19:30:48.172Z,20.25
2022-12-01T19:33:54.868Z,20.08
2022-12-01T19:37:03.550Z,19.30
2022-12-01T19:40:12.434Z,19.40
2022-12-01T19:43:17.808Z,20.38
2022-12-01T19:46:27.534Z,23.10
2022-12-01T19:49:32.635Z,19.08
2022-12-01T19:52:41.712Z,20.23
2022-12-01T19:55:48.140Z,20.55
2022-12-01T19:58:54.189Z,22.60
2022-12-01T20:02:01.538Z,25.92
2022-12-01T20:05:09.852Z,24.90
2022-12-01T20:08:19.295Z,21.73
2022-12-01T20:11:25.967Z,19.00
2022-12-01T20:14:31.122Z,21.00
2022-12-01T20:17:38.269Z,21.38
2022-12-01T20:20:44.792Z,18.00
2022-12-01T20:24:01.835Z,19.85
2022-12-01T20:27:06.865Z,18.10
2022-12-01T20:30:16.285Z,20.15
2022-12-01T20:33:24.281Z,21.33
2022-12-01T20:36:30.468Z,21.17
2022-12-01T20:39:41.599Z,20.75
2022-12-01T20:42:47.897Z,19.63
2022-12-01T20:45:53.504Z,19.30
2022-12-01T20:49:07.446Z,19.15
2022-12-01T20:52:14.777Z,17.92
2022-12-01T20:55:24.824Z,19.10
2022-12-01T20:58:33.287Z,19.40
2022-12-01T21:01:45.581Z,19.92
2022-12-01T21:04:55.115Z,21.73
2022-12-01T21:08:10.016Z,19.58
2022-12-01T21:11:41.905Z,20.08
2022-12-01T21:14:50.702Z,20.95
2022-12-01T21:18:01.160Z,20.73
2022-12-01T21:21:26.660Z,23.08
2022-12-01T21:24:42.164Z,20.90
2022-12-01T21:27:54.018Z,21.52
2022-12-01T21:31:02.078Z,21.02
2022-12-01T21:34:12.910Z,20.60
2022-12-01T21:37:22.473Z,20.98
2022-12-01T21:40:28.661Z,18.90
2022-12-01T21:43:38.792Z,20.83
2022-12-01T21:46:47.934Z,19.63
2022-12-01T21:49:56.809Z,21.58
2022-12-01T21:53:02.516Z,20.42
2022-12-01T21:56:10.060Z,20.77
2022-12-01T21:59:22.482Z,20.08
2022-12-01T22:02:32.764Z,27.57
2022-12-01T22:05:41.541Z,119.50
2022-12-01T22:08:48.698Z,85.82
2022-12-01T22:11:58.808Z,39.25
2022-12-01T22:15:17.212Z,25.33
2022-12-01T22:18:24.963Z,22.67
2022-12-01T22:21:40.473Z,19.98
2022-12-01T22:24:47.034Z,18.00
2022-12-01T22:27:52.657Z,17.40
2022-12-01T22:31:04.612Z,18.83
2022-12-01T22:34:10.296Z,18.08
2022-12-01T22:37:17.716Z,20.98
2022-12-01T22:40:36.827Z,20.10
2022-12-01T22:43:48.476Z,20.48
2022-12-01T22:46:56.837Z,22.27
2022-12-01T22:50:04.567Z,18.83
2022-12-01T22:53:15.069Z,17.38
2022-12-01T22:56:27.480Z,17.55
2022-12-01T22:59:34.661Z,16.37
2022-12-01T23:02:44.059Z,16.13
2022-12-01T23:05:49.695Z,16.63
2022-12-01T23:08:56.034Z,17.45
2022-12-01T23:12:03.727Z,14.88
2022-12-01T23:15:26.157Z,13.90
2022-12-01T23:18:34.916Z,15.32
2022-12-01T23:21:43.961Z,13.20
2022-12-01T23:24:49.413Z,13.82
2022-12-01T23:27:56.108Z,14.98
2022-12-01T23:31:02.266Z,13.73
2022-12-01T23:34:17.468Z,14.25
2022-12-01T23:37:34.605Z,14.68
2022-12-01T23:40:45.600Z,16.00
2022-12-01T23:43:52.918Z,16.90
2022-12-01T23:47:00.262Z,14.25
2022-12-01T23:50:09.871Z,12.55
2022-12-01T23:53:24.369Z,14.32
2022-12-01T23:56:35.945Z,13.07
2022-12-01T23:59:43.503Z,14.98
